Time;durP1;ratioP1;P1;durP2;ratioP2;P2;SDS_P1;SDS_P2;PMS_P1;PMS_P2;Temp;Humidity;BMP_temperature;BMP_pressure;BME280_temperature;BME280_humidity;BME280_pressure;Samples;Min_cycle;Max_cycle;Signal;HPM_P1;HPM_P2
2022/06/29 00:00:32;;;;;;;3.33;1.67;;;;;;;18.36;63.05;101694.56;4901761;28;120886;-80
2022/06/29 00:02:58;;;;;;;5.82;1.85;;;;;;;18.22;63.44;101668.34;4897034;28;119669;-80
2022/06/29 00:05:25;;;;;;;5.88;2.10;;;;;;;18.37;63.81;101685.75;4916860;28;119505;-80
2022/06/29 00:07:52;;;;;;;3.63;1.90;;;;;;;18.39;63.87;101688.81;4901167;28;121042;-80
2022/06/29 00:10:18;;;;;;;4.25;2.22;;;;;;;18.40;63.41;101695.88;4917290;28;119441;-80
2022/06/29 00:12:45;;;;;;;5.25;2.10;;;;;;;18.37;63.75;101685.75;4912230;28;119922;-80
2022/06/29 00:15:12;;;;;;;6.25;2.42;;;;;;;18.40;63.71;101698.66;4908072;28;120045;-80
2022/06/29 00:17:58;;;;;;;7.25;2.05;;;;;;;18.35;63.36;101693.03;4908751;28;120151;-80
2022/06/29 00:20:24;;;;;;;4.13;2.10;;;;;;;18.34;63.53;101695.03;4901206;28;119746;-80
2022/06/29 00:22:50;;;;;;;6.10;2.00;;;;;;;18.30;63.42;101691.69;4913580;28;119708;-80
2022/06/29 00:25:18;;;;;;;5.07;2.20;;;;;;;18.34;63.48;101700.59;4860290;28;120476;-80
2022/06/29 00:27:44;;;;;;;5.43;2.08;;;;;;;18.32;63.48;101691.97;4918065;28;119762;-80
2022/06/29 00:30:11;;;;;;;4.43;1.75;;;;;;;18.24;62.83;101676.97;4902341;28;119653;-80
2022/06/29 00:32:38;;;;;;;3.20;1.60;;;;;;;18.27;62.08;101684.31;4916690;28;118757;-80
2022/06/29 00:35:04;;;;;;;6.05;1.85;;;;;;;18.23;62.41;101686.53;4918938;28;120280;-80
2022/06/29 00:37:30;;;;;;;6.13;2.00;;;;;;;18.17;63.00;101693.97;4903361;28;118685;-80
2022/06/29 00:39:56;;;;;;;3.72;2.10;;;;;;;17.88;63.43;101644.00;4921065;28;119594;-80
2022/06/29 00:42:22;;;;;;;6.45;2.22;;;;;;;18.05;62.84;101672.84;4884435;28;119688;-80
2022/06/29 00:44:49;;;;;;;5.57;2.20;;;;;;;18.14;62.89;101686.59;4894481;28;119932;-80
2022/06/29 00:47:18;;;;;;;5.00;1.92;;;;;;;18.09;62.89;101674.16;4918412;28;119457;-80
2022/06/29 00:49:44;;;;;;;3.13;1.70;;;;;;;18.13;63.35;101681.53;4918434;28;119549;-80
2022/06/29 00:52:12;;;;;;;6.75;1.90;;;;;;;18.14;62.92;101685.84;4897777;28;119422;-80
2022/06/29 00:54:55;;;;;;;4.95;2.10;;;;;;;18.10;63.40;101669.38;4896135;28;119894;-80
2022/06/29 00:57:25;;;;;;;4.18;2.03;;;;;;;18.04;63.29;101666.53;4885987;28;119834;-80
2022/06/29 00:59:57;;;;;;;4.15;2.17;;;;;;;18.05;63.10;101667.28;4923744;28;119531;-80
2022/06/29 01:02:25;;;;;;;4.93;2.08;;;;;;;18.05;63.25;101670.06;4916754;28;119555;-80
2022/06/29 01:04:52;;;;;;;5.10;2.42;;;;;;;18.03;63.13;101661.44;4900618;28;121370;-80
2022/06/29 01:07:22;;;;;;;4.85;2.47;;;;;;;18.02;63.05;101677.34;4920008;28;120071;-80
2022/06/29 01:09:47;;;;;;;7.60;2.53;;;;;;;18.01;63.47;101666.72;4905109;28;119607;-80
2022/06/29 01:12:14;;;;;;;5.28;2.60;;;;;;;18.00;63.38;101670.72;4916640;28;119929;-80
2022/06/29 01:14:42;;;;;;;8.52;2.80;;;;;;;17.97;63.43;101677.22;4882296;28;120810;-80
2022/06/29 01:17:08;;;;;;;7.40;2.85;;;;;;;17.98;63.36;101679.53;4916385;28;119923;-80
2022/06/29 01:19:34;;;;;;;5.00;2.38;;;;;;;17.98;63.81;101671.22;4913390;28;119955;-80
2022/06/29 01:22:14;;;;;;;8.02;2.50;;;;;;;17.97;63.81;101672.44;4904051;28;122310;-80
2022/06/29 01:24:41;;;;;;;5.65;2.45;;;;;;;17.95;63.31;101674.16;4916166;28;119893;-80
2022/06/29 01:27:07;;;;;;;5.15;2.70;;;;;;;17.92;63.02;101673.09;4902792;28;119543;-80
2022/06/29 01:29:34;;;;;;;7.43;2.72;;;;;;;17.85;63.31;101659.59;4913767;28;119924;-80
2022/06/29 01:32:00;;;;;;;4.05;2.83;;;;;;;17.91;63.78;101668.03;4901082;28;120471;-80
2022/06/29 01:34:29;;;;;;;6.00;2.92;;;;;;;17.88;63.76;101658.66;4899930;28;123909;-80
2022/06/29 01:36:55;;;;;;;4.80;2.40;;;;;;;17.90;63.49;101660.94;4903317;28;119473;-80
2022/06/29 01:39:20;;;;;;;7.78;2.72;;;;;;;17.84;63.49;101651.75;4880628;28;120353;-80
2022/06/29 01:41:46;;;;;;;5.53;2.40;;;;;;;17.85;63.31;101656.84;4916236;28;120454;-80
2022/06/29 01:44:12;;;;;;;7.75;2.80;;;;;;;17.83;63.81;101650.22;4877970;28;119582;-80
2022/06/29 01:46:38;;;;;;;8.50;3.20;;;;;;;17.81;64.12;101647.16;4903874;28;119432;-80
2022/06/29 01:49:05;;;;;;;10.57;3.60;;;;;;;17.86;64.00;101647.25;4905737;28;120378;-80
2022/06/29 01:51:30;;;;;;;5.20;3.20;;;;;;;17.82;64.36;101641.13;4915085;28;119393;-80
2022/06/29 01:53:56;;;;;;;5.07;3.40;;;;;;;17.84;64.66;101635.09;4897959;28;122481;-80
2022/06/29 01:56:22;;;;;;;6.55;3.10;;;;;;;17.76;63.89;101623.63;4918890;28;119478;-80
2022/06/29 01:58:48;;;;;;;7.03;3.25;;;;;;;17.86;63.91;101641.72;4884627;28;119596;-80
2022/06/29 02:01:13;;;;;;;6.68;3.42;;;;;;;17.84;64.10;101646.22;4911136;28;119474;-80
2022/06/29 02:03:39;;;;;;;6.97;4.00;;;;;;;17.85;64.60;101636.63;4913914;28;119524;-80
2022/06/29 02:06:06;;;;;;;7.45;4.50;;;;;;;17.83;64.68;101628.03;4918738;28;119531;-80
2022/06/29 02:08:31;;;;;;;6.75;4.38;;;;;;;17.79;64.44;101622.66;4918434;28;119367;-80
2022/06/29 02:10:58;;;;;;;7.32;4.10;;;;;;;17.83;64.19;101628.03;4912314;28;119520;-80
2022/06/29 02:13:24;;;;;;;8.98;3.97;;;;;;;17.80;64.08;101624.22;4918404;28;119512;-79
2022/06/29 02:15:50;;;;;;;10.15;4.35;;;;;;;17.76;64.21;101621.63;4916801;28;119538;-80
2022/06/29 02:18:17;;;;;;;10.82;4.90;;;;;;;17.76;64.72;101613.28;4918519;28;120187;-80
2022/06/29 02:20:43;;;;;;;11.10;5.18;;;;;;;17.76;64.56;101616.06;4915114;28;119794;-79
2022/06/29 02:23:09;;;;;;;7.80;5.15;;;;;;;17.74;64.60;101613.00;4917129;28;119487;-80
2022/06/29 02:25:35;;;;;;;8.63;4.78;;;;;;;17.68;64.56;101595.47;4899090;28;119636;-80
2022/06/29 02:28:00;;;;;;;8.65;4.88;;;;;;;17.77;64.81;101608.50;4921680;28;120229;-80
2022/06/29 02:35:58;;;;;;;9.07;5.75;;;;;;;17.78;65.23;101599.72;4912243;28;119601;-80
2022/06/29 02:38:24;;;;;;;8.10;5.68;;;;;;;17.77;64.90;101597.41;4914794;28;119556;-80
2022/06/29 02:40:50;;;;;;;7.53;5.18;;;;;;;17.80;65.12;101599.22;4899762;28;121333;-80
2022/06/29 02:43:16;;;;;;;10.65;5.45;;;;;;;17.82;65.04;101598.75;4901852;28;119565;-80
2022/06/29 02:45:41;;;;;;;9.65;5.43;;;;;;;17.76;64.62;101582.78;4916120;28;119912;-80
2022/06/29 02:48:08;;;;;;;8.75;5.60;;;;;;;17.82;64.81;101596.75;4898177;28;122125;-80
2022/06/29 02:50:34;;;;;;;7.60;5.10;;;;;;;17.82;64.93;101598.75;4917706;28;119328;-79
2022/06/29 02:53:00;;;;;;;9.05;6.22;;;;;;;17.75;65.07;101580.47;4891436;28;121353;-80
2022/06/29 02:55:27;;;;;;;8.82;6.15;;;;;;;17.78;65.04;101590.63;4894276;28;119672;-80
2022/06/29 02:57:53;;;;;;;9.98;6.82;;;;;;;17.81;65.22;101588.91;4907346;28;119572;-80
2022/06/29 03:00:18;;;;;;;12.70;6.15;;;;;;;17.72;65.05;101579.41;4905616;28;121658;-80
2022/06/29 03:02:45;;;;;;;7.97;5.60;;;;;;;17.76;65.55;101582.78;4880936;28;119736;-80
2022/06/29 03:05:11;;;;;;;9.63;5.40;;;;;;;17.79;65.27;101586.59;4907798;28;119745;-80
2022/06/29 03:07:36;;;;;;;6.90;5.65;;;;;;;17.79;65.00;101583.81;4913568;28;119746;-80
2022/06/29 03:10:03;;;;;;;7.15;6.00;;;;;;;17.76;65.19;101579.22;4909375;28;119650;-80
2022/06/29 03:12:29;;;;;;;8.57;6.00;;;;;;;17.83;65.16;101581.63;4884872;28;121435;-80
2022/06/29 03:14:55;;;;;;;9.30;5.65;;;;;;;17.82;65.50;101576.53;4915743;28;119768;-80
2022/06/29 03:17:20;;;;;;;8.23;6.20;;;;;;;17.85;65.56;101579.13;4904631;28;120609;-80
2022/06/29 03:19:46;;;;;;;7.47;6.35;;;;;;;17.81;66.00;101577.78;4899321;28;120080;-80
2022/06/29 03:22:12;;;;;;;7.85;5.97;;;;;;;17.81;65.72;101564.69;4900302;28;119425;-80
2022/06/29 03:24:39;;;;;;;8.38;6.30;;;;;;;17.84;65.66;101566.50;4895687;28;119911;-80
2022/06/29 03:27:05;;;;;;;9.68;6.40;;;;;;;17.90;65.69;101570.13;4899811;28;119313;-80
2022/06/29 03:29:31;;;;;;;10.00;6.97;;;;;;;17.98;66.30;101578.81;4899339;28;119784;-80
2022/06/29 03:31:57;;;;;;;10.63;6.80;;;;;;;18.01;66.34;101580.66;4903532;28;119538;-80
2022/06/29 03:34:23;;;;;;;9.23;6.85;;;;;;;18.02;66.15;101574.63;4911185;28;119633;-80
2022/06/29 03:36:48;;;;;;;9.45;6.80;;;;;;;18.05;66.55;101572.88;4915435;28;119665;-80
2022/06/29 03:39:32;;;;;;;9.55;6.47;;;;;;;17.96;66.47;101565.41;4914823;28;120288;-80
2022/06/29 03:41:58;;;;;;;9.52;6.40;;;;;;;18.08;66.60;101571.94;4898738;28;119903;-80
2022/06/29 03:44:24;;;;;;;8.18;6.35;;;;;;;18.02;66.53;101557.19;4898860;28;119864;-79
2022/06/29 03:46:50;;;;;;;12.52;8.45;;;;;;;18.16;66.91;101575.06;4914902;28;119723;-80
2022/06/29 03:49:15;;;;;;;9.95;7.53;;;;;;;18.21;67.30;101577.91;4898613;28;119630;-80
2022/06/29 03:51:41;;;;;;;11.05;7.68;;;;;;;18.22;67.54;101560.03;4897156;28;119683;-80
2022/06/29 03:54:07;;;;;;;11.98;7.10;;;;;;;18.24;67.33;101557.53;4916043;28;119713;-80
2022/06/29 03:56:32;;;;;;;12.38;7.82;;;;;;;18.37;67.48;101569.06;4916439;28;119519;-80
2022/06/29 03:58:58;;;;;;;12.88;9.18;;;;;;;18.41;67.67;101561.31;4890817;28;120906;-80
2022/06/29 04:01:24;;;;;;;10.65;8.02;;;;;;;18.49;67.92;101552.59;4905590;28;119294;-80
2022/06/29 04:03:49;;;;;;;14.75;8.68;;;;;;;18.58;68.08;101560.78;4906579;28;119372;-80
2022/06/29 04:06:15;;;;;;;10.68;7.63;;;;;;;18.77;67.83;101566.88;4908227;28;120960;-80
2022/06/29 04:08:41;;;;;;;12.07;7.80;;;;;;;18.85;67.77;101577.06;4904768;28;119670;-80
2022/06/29 04:11:48;;;;;;;11.25;7.55;;;;;;;18.86;67.65;101564.72;4900414;28;119821;-80
2022/06/29 04:13:52;;;;;;;14.05;7.10;;;;;;;19.02;67.51;101561.38;4909638;28;120622;-80
2022/06/29 04:16:18;;;;;;;8.80;7.90;;;;;;;19.11;67.70;101570.81;4902897;28;120069;-80
2022/06/29 04:18:49;;;;;;;10.30;7.03;;;;;;;19.16;67.23;101562.53;4895394;28;120207;-80
2022/06/29 04:21:15;;;;;;;13.55;7.45;;;;;;;19.12;67.25;101552.88;4898464;28;119400;-80
2022/06/29 04:23:41;;;;;;;11.73;7.60;;;;;;;19.26;67.36;101571.50;4883009;28;120197;-80
2022/06/29 04:26:07;;;;;;;12.90;7.55;;;;;;;19.31;67.32;101568.00;4898768;28;120851;-80
2022/06/29 04:28:33;;;;;;;8.98;7.10;;;;;;;19.35;67.23;101568.53;4916675;28;119476;-80
2022/06/29 04:30:58;;;;;;;11.48;7.10;;;;;;;19.29;67.26;101548.25;4920811;28;119479;-80
2022/06/29 04:33:25;;;;;;;12.07;7.40;;;;;;;19.43;67.57;101563.34;4917628;28;120952;-80
2022/06/29 04:35:51;;;;;;;16.80;7.78;;;;;;;19.49;67.80;101564.91;4885677;28;119512;-80
2022/06/29 04:38:17;;;;;;;13.18;8.95;;;;;;;19.51;67.80;101556.81;4912952;28;119628;-80
2022/06/29 04:40:54;;;;;;;10.70;7.00;;;;;;;19.57;68.12;101563.22;4901884;28;119545;-80
2022/06/29 04:43:20;;;;;;;10.70;7.78;;;;;;;19.61;68.02;101558.19;4917862;28;119525;-80
2022/06/29 04:48:30;;;;;;;11.07;7.50;;;;;;;19.63;68.10;101554.94;4918417;28;119656;-80
2022/06/29 04:50:56;;;;;;;12.85;8.18;;;;;;;19.65;68.48;101546.88;4902511;28;119776;-80
2022/06/29 04:53:22;;;;;;;11.63;8.70;;;;;;;19.72;68.77;101552.00;4918450;28;120093;-80
2022/06/29 04:55:47;;;;;;;13.50;9.35;;;;;;;19.81;68.65;101556.59;4912411;28;119787;-80
2022/06/29 04:58:13;;;;;;;15.93;9.35;;;;;;;19.85;68.56;101559.91;4910106;28;120181;-80
2022/06/29 05:00:42;;;;;;;14.82;9.18;;;;;;;19.92;68.65;101562.28;4888779;28;121094;-80
2022/06/29 05:03:07;;;;;;;14.85;8.18;;;;;;;19.96;68.96;101553.69;4915745;28;119942;-80
2022/06/29 05:05:33;;;;;;;10.80;8.07;;;;;;;20.07;68.32;101564.91;4893987;28;120131;-80
2022/06/29 05:07:59;;;;;;;9.65;7.45;;;;;;;20.06;68.25;101558.56;4889549;28;119594;-80
2022/06/29 05:10:25;;;;;;;12.60;8.00;;;;;;;20.15;68.27;101552.06;4903870;28;119541;-80
2022/06/29 05:12:50;;;;;;;12.70;7.50;;;;;;;20.27;67.96;101558.47;4899186;28;121225;-80
2022/06/29 05:15:16;;;;;;;14.80;6.95;;;;;;;20.29;67.94;101550.38;4913823;28;120571;-80
2022/06/29 05:17:42;;;;;;;13.77;7.28;;;;;;;20.41;67.91;101552.75;4901765;28;119832;-80
2022/06/29 05:20:09;;;;;;;12.68;6.97;;;;;;;20.45;67.77;101549.75;4904491;28;122321;-80
2022/06/29 05:22:36;;;;;;;12.90;5.80;;;;;;;20.52;67.56;101550.03;4913779;28;120083;-80
2022/06/29 05:25:02;;;;;;;9.23;5.38;;;;;;;20.59;67.79;101550.84;4913275;28;120036;-80
2022/06/29 05:27:28;;;;;;;11.82;5.90;;;;;;;20.57;67.55;101539.41;4917847;28;119690;-80
2022/06/29 05:29:54;;;;;;;10.40;5.93;;;;;;;20.67;67.57;101546.31;4919056;28;119897;-80
2022/06/29 05:32:20;;;;;;;10.75;4.85;;;;;;;20.71;67.31;101546.81;4917773;28;119623;-80
2022/06/29 05:34:45;;;;;;;11.95;4.90;;;;;;;20.73;67.24;101541.50;4897279;28;119814;-80
2022/06/29 05:37:11;;;;;;;10.80;4.72;;;;;;;20.76;66.62;101540.50;4917601;28;119718;-80
2022/06/29 05:39:37;;;;;;;11.75;4.30;;;;;;;20.75;67.01;101542.53;4915758;28;120641;-80
2022/06/29 05:42:03;;;;;;;11.13;4.72;;;;;;;20.78;66.85;101538.72;4921475;28;119918;-80
2022/06/29 05:44:29;;;;;;;19.45;5.53;;;;;;;20.89;66.57;101548.41;4915293;28;119961;-80
2022/06/29 05:46:55;;;;;;;14.90;5.25;;;;;;;20.90;66.65;101547.16;4901174;28;120406;-80
2022/06/29 05:49:20;;;;;;;19.02;6.03;;;;;;;20.94;66.94;101550.47;4916280;28;120015;-80
2022/06/29 05:51:46;;;;;;;13.70;5.07;;;;;;;20.97;67.12;101550.22;4899833;28;120469;-80
2022/06/29 05:54:12;;;;;;;15.80;5.15;;;;;;;20.98;66.89;101543.38;4907524;28;119894;-80
2022/06/29 05:56:38;;;;;;;11.82;4.72;;;;;;;21.03;66.79;101551.00;4891669;28;120184;-80
2022/06/29 05:59:03;;;;;;;11.15;4.68;;;;;;;20.82;66.77;101511.41;4913281;28;120869;-80
2022/06/29 06:01:29;;;;;;;9.05;4.55;;;;;;;21.08;66.46;101541.13;4880758;28;120472;-80
2022/06/29 06:03:55;;;;;;;8.05;4.10;;;;;;;21.00;66.63;101521.31;4919355;28;119901;-80
2022/06/29 06:06:20;;;;;;;5.93;3.67;;;;;;;21.15;66.63;101540.63;4919242;28;120291;-80
2022/06/29 06:08:46;;;;;;;5.57;4.18;;;;;;;21.22;66.41;101542.16;4916693;28;119999;-80
2022/06/29 06:11:12;;;;;;;9.38;4.07;;;;;;;21.27;65.62;101549.81;4915999;28;120036;-80
2022/06/29 06:13:37;;;;;;;5.63;3.45;;;;;;;21.27;65.76;101550.56;4914587;28;120432;-80
2022/06/29 06:16:04;;;;;;;6.75;3.97;;;;;;;21.33;65.68;101547.81;4914514;28;120231;-80
2022/06/29 06:18:29;;;;;;;6.80;3.83;;;;;;;21.35;65.48;101551.63;4914591;28;119919;-80
2022/06/29 06:21:13;;;;;;;8.98;4.00;;;;;;;21.34;65.17;101549.34;4913322;28;120421;-80
2022/06/29 06:23:39;;;;;;;8.48;4.10;;;;;;;21.42;65.89;101551.13;4911016;28;120710;-80
2022/06/29 06:26:05;;;;;;;5.30;3.75;;;;;;;21.40;65.30;101547.31;4917572;28;120809;-80
2022/06/29 06:28:31;;;;;;;10.57;4.22;;;;;;;21.50;65.67;101561.78;4911084;28;120499;-80
2022/06/29 06:30:57;;;;;;;7.00;4.18;;;;;;;21.45;65.35;101550.09;4914041;28;121286;-80
2022/06/29 06:33:22;;;;;;;4.50;3.70;;;;;;;21.54;65.48;101545.56;4899485;28;120488;-80
2022/06/29 06:35:49;;;;;;;7.30;4.03;;;;;;;21.57;66.06;101547.34;4905545;28;120778;-80
2022/06/29 06:38:18;;;;;;;6.63;4.20;;;;;;;21.61;65.35;101550.63;4906880;28;121240;-80
2022/06/29 06:43:33;;;;;;;4.63;3.88;;;;;;;21.67;65.81;101551.38;4903819;28;121995;-80
2022/06/29 06:46:23;;;;;;;6.55;3.72;;;;;;;21.68;65.41;101544.53;4880364;28;121121;-80
2022/06/29 06:48:53;;;;;;;7.20;3.78;;;;;;;21.61;64.94;101526.28;4899977;28;120895;-80
2022/06/29 06:51:20;;;;;;;6.07;4.40;;;;;;;21.75;65.02;101555.19;4907758;28;123086;-80
2022/06/29 06:53:47;;;;;;;4.75;3.85;;;;;;;21.70;65.39;101530.84;4899836;28;120682;-80
2022/06/29 06:56:16;;;;;;;6.65;3.72;;;;;;;21.77;65.71;101535.94;4907192;28;121927;-80
2022/06/29 06:58:42;;;;;;;5.35;3.30;;;;;;;21.84;65.65;101535.41;4884088;28;121167;-80
2022/06/29 07:01:09;;;;;;;3.83;3.22;;;;;;;21.85;65.28;101528.53;4896979;28;121009;-80
2022/06/29 07:03:36;;;;;;;5.20;3.70;;;;;;;21.88;65.53;101541.50;4882522;28;123024;-80
2022/06/29 07:06:06;;;;;;;6.03;3.70;;;;;;;21.91;64.93;101532.09;4902959;28;122352;-80
2022/06/29 07:08:33;;;;;;;6.13;3.42;;;;;;;21.92;65.17;101530.81;4899202;28;120874;-80
2022/06/29 07:11:03;;;;;;;5.22;3.45;;;;;;;21.96;65.56;101533.34;4886112;28;122162;-80
2022/06/29 07:13:29;;;;;;;5.57;2.90;;;;;;;21.98;64.46;101531.56;4915685;28;121330;-80
2022/06/29 07:15:55;;;;;;;6.55;3.05;;;;;;;22.01;65.30;101538.94;4896318;28;121916;-80
2022/06/29 07:18:21;;;;;;;4.15;2.47;;;;;;;22.02;65.21;101528.53;4887234;28;122798;-80
2022/06/29 07:20:51;;;;;;;5.00;3.17;;;;;;;22.08;65.18;101542.53;4909453;28;121352;-80
2022/06/29 07:23:17;;;;;;;5.43;3.08;;;;;;;22.02;64.83;101526.50;4908770;28;121798;-80
2022/06/29 07:25:43;;;;;;;6.03;2.85;;;;;;;22.11;64.42;101533.88;4894681;28;124126;-80
2022/06/29 07:28:09;;;;;;;5.63;2.58;;;;;;;22.14;64.34;101535.66;4915136;28;121693;-80
2022/06/29 07:30:34;;;;;;;5.28;2.65;;;;;;;22.16;64.20;101532.34;4899837;28;123583;-81
2022/06/29 07:33:00;;;;;;;4.18;2.75;;;;;;;22.18;63.64;101543.75;4888854;28;121363;-81
2022/06/29 07:35:26;;;;;;;4.43;2.60;;;;;;;22.25;64.78;101546.06;4909149;28;121528;-80
2022/06/29 07:37:53;;;;;;;4.00;2.88;;;;;;;22.22;64.18;101530.28;4910366;28;121081;-80
2022/06/29 07:40:20;;;;;;;6.25;3.20;;;;;;;22.30;63.83;101542.47;4909467;28;121551;-80
2022/06/29 07:42:45;;;;;;;3.97;2.70;;;;;;;22.32;64.70;101532.31;4906400;28;121256;-81
2022/06/29 07:45:11;;;;;;;4.95;2.83;;;;;;;22.33;62.89;101533.06;4887490;28;121595;-80
2022/06/29 07:47:37;;;;;;;4.43;2.75;;;;;;;22.36;63.36;101530.00;4909713;28;122098;-81
2022/06/29 07:50:06;;;;;;;4.18;2.72;;;;;;;22.42;63.67;101532.78;4913038;28;122991;-80
2022/06/29 07:52:36;;;;;;;5.10;2.70;;;;;;;22.44;63.43;101535.81;4893730;28;122805;-80
2022/06/29 07:55:03;;;;;;;3.33;2.50;;;;;;;22.50;63.05;101528.19;4910090;28;121287;-80
2022/06/29 07:57:29;;;;;;;3.95;2.47;;;;;;;22.53;62.66;101526.41;4913414;28;121833;-80
2022/06/29 07:59:54;;;;;;;6.10;2.70;;;;;;;22.55;63.09;101523.84;4897814;28;121565;-80
2022/06/29 08:02:20;;;;;;;3.78;2.78;;;;;;;22.63;63.62;101533.97;4902180;28;121264;-81
2022/06/29 08:04:46;;;;;;;3.65;2.70;;;;;;;22.68;62.93;101519.22;4907638;28;122053;-80
2022/06/29 08:07:12;;;;;;;4.40;2.80;;;;;;;22.75;61.64;101517.16;4911161;28;121879;-81
2022/06/29 08:09:37;;;;;;;4.45;2.70;;;;;;;22.86;61.70;101511.53;4913976;28;121939;-80
2022/06/29 08:12:04;;;;;;;5.07;2.55;;;;;;;22.94;62.58;101512.50;4912651;28;121826;-80
2022/06/29 08:14:29;;;;;;;5.55;2.50;;;;;;;22.98;62.11;101503.84;4907007;28;121821;-81
2022/06/29 08:16:55;;;;;;;5.32;2.50;;;;;;;23.12;61.40;101514.69;4872956;28;122494;-80
2022/06/29 08:19:21;;;;;;;3.42;2.47;;;;;;;23.26;61.44;101513.59;4894893;28;121747;-81
2022/06/29 08:21:47;;;;;;;4.10;2.30;;;;;;;23.40;60.26;101517.28;4881404;28;123600;-80
2022/06/29 08:24:12;;;;;;;4.05;2.30;;;;;;;23.47;60.53;101499.19;4906284;28;122416;-82
2022/06/29 08:26:38;;;;;;;3.88;2.28;;;;;;;23.65;59.62;101498.53;4905369;28;122413;-79
2022/06/29 08:29:04;;;;;;;5.65;2.40;;;;;;;23.75;59.77;101499.72;4889674;28;121837;-85
2022/06/29 08:31:30;;;;;;;3.63;2.00;;;;;;;23.80;59.58;101498.91;4871382;28;121899;-85
2022/06/29 08:33:56;;;;;;;4.72;2.33;;;;;;;23.90;59.35;101490.94;4873647;28;122093;-90
2022/06/29 08:36:22;;;;;;;4.60;2.60;;;;;;;23.95;59.44;101497.78;4911055;28;122192;-89
2022/06/29 08:38:48;;;;;;;6.38;2.42;;;;;;;24.02;58.20;101492.34;4878612;28;121906;-80
2022/06/29 08:41:15;;;;;;;4.20;2.17;;;;;;;24.04;58.76;101500.22;4911283;28;122015;-80
2022/06/29 08:43:44;;;;;;;3.45;2.10;;;;;;;24.05;59.42;101498.94;4909977;28;122495;-79
2022/06/29 08:46:13;;;;;;;4.85;2.65;;;;;;;24.04;60.25;101489.00;4895182;28;121837;-80
2022/06/29 08:48:39;;;;;;;4.72;2.47;;;;;;;24.08;60.32;101489.47;4890068;28;123004;-80
2022/06/29 08:51:06;;;;;;;4.78;2.72;;;;;;;24.11;60.61;101505.22;4892737;28;122352;-80
2022/06/29 08:53:33;;;;;;;3.03;2.20;;;;;;;24.08;58.55;101503.47;4911120;28;121486;-80
2022/06/29 08:56:01;;;;;;;3.70;2.30;;;;;;;24.07;56.95;101501.97;4914621;28;123604;-80
2022/06/29 08:58:27;;;;;;;4.38;2.40;;;;;;;24.05;58.17;101508.09;4902168;28;124393;-80
2022/06/29 09:00:53;;;;;;;5.20;2.20;;;;;;;24.04;58.74;101503.78;4914914;28;121787;-80
2022/06/29 09:03:20;;;;;;;4.30;2.13;;;;;;;24.05;59.24;101496.13;4910109;28;121891;-80
2022/06/29 09:05:48;;;;;;;3.78;2.40;;;;;;;24.06;59.79;101489.22;4911600;28;122226;-80
2022/06/29 09:08:18;;;;;;;4.10;2.28;;;;;;;24.09;59.61;101493.78;4905219;28;121369;-80
2022/06/29 09:10:45;;;;;;;5.25;2.00;;;;;;;24.21;56.58;101503.59;4886094;28;123329;-80
2022/06/29 09:13:30;;;;;;;4.10;2.03;;;;;;;24.31;55.28;101498.41;4901644;28;122451;-80
2022/06/29 09:15:58;;;;;;;4.00;2.17;;;;;;;24.36;57.05;101495.53;4893865;28;122043;-80
2022/06/29 09:18:30;;;;;;;5.25;2.00;;;;;;;24.41;58.28;101494.75;4907410;28;121820;-80
2022/06/29 09:21:02;;;;;;;3.60;2.17;;;;;;;24.38;57.49;101495.78;4914949;28;122187;-80
2022/06/29 09:23:29;;;;;;;3.58;2.13;;;;;;;24.41;57.80;101503.16;4888536;28;122271;-80
2022/06/29 09:25:55;;;;;;;3.28;1.88;;;;;;;24.45;56.05;101498.00;4892428;28;122473;-80
2022/06/29 09:28:26;;;;;;;6.60;2.80;;;;;;;24.49;56.99;101506.09;4891490;28;123650;-80
2022/06/29 09:30:53;;;;;;;8.27;2.00;;;;;;;24.50;54.81;101496.41;4903015;28;122457;-80
2022/06/29 09:33:25;;;;;;;6.00;2.60;;;;;;;24.53;56.36;101503.00;4904526;28;122460;-80
2022/06/29 09:36:18;;;;;;;4.78;2.22;;;;;;;24.54;56.59;101498.91;4904497;28;121762;-80
2022/06/29 09:38:44;;;;;;;5.72;2.38;;;;;;;24.46;55.91;101491.09;4903382;28;122074;-80
2022/06/29 09:41:15;;;;;;;4.80;2.10;;;;;;;24.44;56.13;101487.31;4913769;28;122169;-80
2022/06/29 09:43:43;;;;;;;3.92;1.92;;;;;;;24.46;53.91;101490.34;4906904;28;122379;-80
2022/06/29 09:46:11;;;;;;;5.63;2.50;;;;;;;24.43;54.88;101485.78;4905835;28;122473;-80
2022/06/29 09:48:49;;;;;;;4.80;2.10;;;;;;;24.58;56.01;101496.56;4893373;28;122137;-80
2022/06/29 09:51:32;;;;;;;5.43;2.20;;;;;;;24.65;55.88;101490.38;4902309;28;123338;-80
2022/06/29 09:54:06;;;;;;;4.15;2.40;;;;;;;24.65;56.92;101490.38;4906732;28;122058;-80
2022/06/29 09:56:33;;;;;;;4.28;2.20;;;;;;;24.71;55.82;101493.84;4908330;28;122337;-80
2022/06/29 09:59:01;;;;;;;7.30;2.72;;;;;;;24.78;56.44;101488.38;4909440;28;122019;-80
2022/06/29 10:04:16;;;;;;;8.48;2.50;;;;;;;24.87;55.50;101478.09;4914981;28;123881;-80
2022/06/29 10:06:43;;;;;;;6.35;2.53;;;;;;;24.95;55.93;101479.72;4914299;28;122080;-80
2022/06/29 10:09:09;;;;;;;7.15;2.80;;;;;;;24.96;55.22;101474.88;4913995;28;122256;-80
2022/06/29 10:14:43;;;;;;;6.57;2.88;;;;;;;24.91;56.35;101476.47;4908978;28;122217;-80
2022/06/29 10:17:12;;;;;;;4.90;2.53;;;;;;;24.89;55.97;101478.31;4912769;28;121988;-80
2022/06/29 10:19:46;;;;;;;10.60;2.95;;;;;;;24.87;56.46;101467.63;4913094;28;123645;-80
2022/06/29 10:22:12;;;;;;;6.60;2.75;;;;;;;24.75;55.57;101449.41;4895723;28;122500;-80
2022/06/29 10:24:38;;;;;;;8.68;2.90;;;;;;;24.83;55.60;101455.91;4908659;28;122466;-80
2022/06/29 10:27:07;;;;;;;10.40;2.95;;;;;;;24.86;54.51;101460.50;4914882;28;121870;-80
2022/06/29 10:30:22;;;;;;;6.90;2.60;;;;;;;24.91;55.40;101459.66;4896602;28;123794;-80
2022/06/29 10:32:50;;;;;;;9.57;2.70;;;;;;;24.92;56.49;101458.34;4912915;28;124525;-80
2022/06/29 10:35:16;;;;;;;7.47;2.60;;;;;;;24.93;56.59;101459.88;4905166;28;122031;-80
2022/06/29 10:37:53;;;;;;;3.72;2.00;;;;;;;24.94;55.76;101461.38;4895937;28;122662;-80
2022/06/29 10:40:24;;;;;;;4.80;2.15;;;;;;;24.90;56.46;101449.72;4901853;28;123111;-80
2022/06/29 10:43:08;;;;;;;4.25;2.00;;;;;;;24.89;55.61;101461.47;4905021;28;121909;-80
2022/06/29 10:45:47;;;;;;;6.20;2.40;;;;;;;24.89;55.14;101451.00;4894773;28;122261;-81
2022/06/29 10:48:20;;;;;;;;;;;;;;;24.89;54.32;101459.41;4895459;28;122350;-80
2022/06/29 10:50:48;;;;;;;4.45;2.25;;;;;;;24.93;55.46;101457.06;4914466;28;122075;-80
2022/06/29 10:53:16;;;;;;;3.60;2.13;;;;;;;24.91;54.65;101448.41;4906752;28;123710;-80
2022/06/29 10:55:45;;;;;;;5.57;2.30;;;;;;;24.97;55.43;101454.69;4910926;28;122395;-80
2022/06/29 10:58:23;;;;;;;2.58;2.05;;;;;;;24.98;56.58;101458.25;4886566;28;122377;-80
2022/06/29 11:00:58;;;;;;;4.07;2.45;;;;;;;24.96;55.71;101452.44;4912938;28;122002;-80
2022/06/29 11:03:26;;;;;;;5.43;2.30;;;;;;;24.97;56.68;101454.69;4888851;28;122136;-80
2022/06/29 11:16:59;;;;;;;7.63;2.10;;;;;;;24.94;56.25;101438.19;4911196;28;122383;-80
2022/06/29 11:19:32;;;;;;;5.80;2.25;;;;;;;24.98;55.89;101442.19;4913723;28;121816;-80
2022/06/29 11:22:18;;;;;;;5.60;2.30;;;;;;;24.97;55.16;101432.25;4895651;28;122198;-80
2022/06/29 11:25:10;;;;;;;4.15;2.22;;;;;;;24.98;55.31;101436.56;4911899;28;122510;-80
2022/06/29 11:27:39;;;;;;;5.97;2.40;;;;;;;24.92;56.36;101430.28;4894380;28;121958;-80
2022/06/29 11:30:07;;;;;;;5.13;2.55;;;;;;;25.00;56.72;101431.22;4909673;28;122509;-80
2022/06/29 11:32:41;;;;;;;6.03;2.53;;;;;;;25.03;55.43;101432.19;4896735;28;122045;-80
2022/06/29 11:35:08;;;;;;;3.80;2.65;;;;;;;25.05;56.30;101426.78;4897027;28;122821;-80
2022/06/29 11:37:34;;;;;;;5.65;2.50;;;;;;;25.08;56.03;101423.69;4908533;28;121911;-80
2022/06/29 11:40:00;;;;;;;6.63;2.40;;;;;;;25.06;55.42;101415.03;4880164;28;122845;-81
2022/06/29 11:45:19;;;;;;;6.80;2.50;;;;;;;25.16;55.52;101421.00;4891569;28;121763;-80
2022/06/29 11:47:53;;;;;;;13.60;2.30;;;;;;;25.15;55.79;101425.13;4914301;28;121949;-80
2022/06/29 11:50:22;;;;;;;4.47;2.22;;;;;;;25.15;53.89;101413.88;4912870;28;123207;-80